Time;durP1;ratioP1;P1;durP2;ratioP2;P2;SDS_P1;SDS_P2;PMS_P1;PMS_P2;Temp;Humidity;BMP_temperature;BMP_pressure;BME280_temperature;BME280_humidity;BME280_pressure;Samples;Min_cycle;Max_cycle;Signal;HPM_P1;HPM_P2
2023/05/25 00:01:10;;;;;;;12.40;7.60;;;;;;;26.51;39.40;100080.77;108162;1253;72467;-68
2023/05/25 00:03:39;;;;;;;10.30;8.00;;;;;;;26.49;39.50;100078.76;108198;1254;60857;-66
2023/05/25 00:06:06;;;;;;;10.80;7.00;;;;;;;26.68;39.15;100078.64;108073;1253;60153;-66
2023/05/25 00:08:34;;;;;;;9.70;7.20;;;;;;;26.77;38.86;100079.27;108075;1254;72756;-67
2023/05/25 00:11:01;;;;;;;10.30;7.70;;;;;;;26.50;39.01;100078.29;108127;1254;70685;-66
2023/05/25 00:13:28;;;;;;;14.20;7.80;;;;;;;26.68;38.91;100077.90;108143;1254;72848;-65
2023/05/25 00:15:54;;;;;;;9.50;7.70;;;;;;;26.71;38.76;100081.84;108117;1254;61614;-65
2023/05/25 00:18:21;;;;;;;10.60;8.20;;;;;;;26.74;38.80;100084.27;108149;1254;59838;-66
2023/05/25 00:20:47;;;;;;;9.00;7.40;;;;;;;26.55;39.06;100082.45;108186;1254;73682;-66
2023/05/25 00:23:14;;;;;;;9.80;7.90;;;;;;;26.47;39.11;100085.42;108162;1253;70087;-66
2023/05/25 00:25:41;;;;;;;14.30;8.20;;;;;;;25.92;40.09;100084.11;108125;1253;72673;-66
2023/05/25 00:28:08;;;;;;;13.20;8.00;;;;;;;25.76;40.33;100080.02;108161;1253;61876;-66
2023/05/25 00:30:34;;;;;;;12.80;8.40;;;;;;;25.76;40.48;100078.30;108188;1254;59685;-67
2023/05/25 00:33:01;;;;;;;10.20;7.70;;;;;;;25.91;40.38;100077.91;108070;1254;73647;-66
2023/05/25 00:35:28;;;;;;;11.90;8.60;;;;;;;25.81;40.46;100076.83;108242;1253;68697;-67
2023/05/25 00:37:55;;;;;;;11.50;7.90;;;;;;;25.24;41.37;100076.20;108210;1253;73045;-66
2023/05/25 00:40:21;;;;;;;12.60;7.60;;;;;;;25.01;41.85;100078.29;108052;1254;62004;-66
2023/05/25 00:42:48;;;;;;;14.40;7.70;;;;;;;24.98;41.94;100077.51;108101;1254;59324;-65
2023/05/25 00:45:14;;;;;;;14.70;8.10;;;;;;;25.10;41.71;100074.73;108151;1254;73208;-67
2023/05/25 00:47:42;;;;;;;13.50;8.00;;;;;;;25.14;41.36;100069.61;108258;1254;70281;-67
2023/05/25 00:50:09;;;;;;;13.00;8.40;;;;;;;25.10;41.55;100071.15;108197;1254;73052;-67
2023/05/25 00:52:37;;;;;;;11.30;7.90;;;;;;;25.11;41.68;100073.02;108178;1254;62176;-67
2023/05/25 00:55:06;;;;;;;15.00;8.70;;;;;;;25.17;41.75;100073.46;108094;1254;60083;-67
2023/05/25 00:57:36;;;;;;;13.20;8.20;;;;;;;25.44;41.30;100072.97;108229;1253;72859;-64
2023/05/25 01:00:12;;;;;;;15.00;8.30;;;;;;;25.61;40.89;100071.09;108067;1254;70832;-66
2023/05/25 01:02:41;;;;;;;14.20;8.90;;;;;;;25.74;40.65;100073.73;108201;1253;72852;-68
2023/05/25 01:05:08;;;;;;;11.00;8.10;;;;;;;25.49;40.97;100078.23;108135;1253;61264;-65
2023/05/25 01:07:36;;;;;;;10.90;8.50;;;;;;;25.43;41.02;100078.13;108250;1253;59650;-67
2023/05/25 01:10:07;;;;;;;9.80;7.90;;;;;;;25.68;40.55;100079.52;108208;1256;73307;-67
2023/05/25 01:12:38;;;;;;;12.70;7.40;;;;;;;25.78;40.38;100080.17;107910;1253;70206;-67
2023/05/25 01:15:07;;;;;;;11.20;9.10;;;;;;;25.63;40.55;100080.35;107825;1254;73084;-67
2023/05/25 01:17:36;;;;;;;11.00;8.50;;;;;;;25.45;40.91;100081.52;108143;1257;60786;-67
2023/05/25 01:20:08;;;;;;;10.30;8.10;;;;;;;25.52;40.97;100082.27;108185;1253;60401;-66
2023/05/25 01:22:52;;;;;;;12.70;9.40;;;;;;;25.47;40.88;100080.23;108142;1253;73859;-66
2023/05/25 01:25:44;;;;;;;10.60;8.40;;;;;;;25.34;41.10;100080.63;108125;1257;70399;-66
2023/05/25 01:28:31;;;;;;;13.70;9.50;;;;;;;25.32;41.17;100077.03;107979;1253;73498;-66
2023/05/25 01:31:02;;;;;;;12.10;9.00;;;;;;;25.04;41.54;100076.16;108219;1253;60338;-68
2023/05/25 01:33:29;;;;;;;14.80;8.90;;;;;;;25.18;41.28;100073.40;107979;1254;60873;-68
2023/05/25 01:35:57;;;;;;;13.40;9.00;;;;;;;25.11;41.39;100076.02;108096;1253;72608;-67
2023/05/25 01:38:24;;;;;;;13.60;8.70;;;;;;;25.02;41.61;100075.65;108186;1253;70000;-67
2023/05/25 01:40:52;;;;;;;10.90;7.70;;;;;;;24.98;41.64;100071.02;108258;1254;73241;-67
2023/05/25 01:43:22;;;;;;;17.40;9.10;;;;;;;25.03;41.57;100077.90;108114;1259;62488;-66
2023/05/25 01:45:50;;;;;;;11.50;8.70;;;;;;;24.98;41.69;100079.16;108257;1254;60430;-67
2023/05/25 01:48:35;;;;;;;14.80;8.40;;;;;;;24.90;41.74;100077.86;108214;1253;73651;-65
2023/05/25 01:51:14;;;;;;;11.90;8.60;;;;;;;24.77;41.93;100081.52;108165;1253;70860;-69
2023/05/25 01:53:57;;;;;;;16.30;8.30;;;;;;;24.62;42.04;100082.23;108129;1254;72699;-68
2023/05/25 01:56:25;;;;;;;11.20;8.70;;;;;;;24.59;42.05;100083.07;108204;1253;60806;-69
2023/05/25 01:58:52;;;;;;;15.40;9.50;;;;;;;24.65;41.83;100085.80;108042;1256;60521;-67
2023/05/25 02:01:19;;;;;;;15.60;8.80;;;;;;;24.62;41.97;100093.73;107978;1259;73848;-67
2023/05/25 02:03:47;;;;;;;15.50;9.40;;;;;;;24.59;42.23;100097.77;108049;1253;68192;-67
2023/05/25 02:06:15;;;;;;;13.00;9.40;;;;;;;24.50;42.44;100099.72;108107;1254;73246;-68
2023/05/25 02:08:42;;;;;;;12.00;9.00;;;;;;;24.78;42.28;100097.98;108136;1253;61689;-67
2023/05/25 02:11:14;;;;;;;12.70;9.10;;;;;;;24.78;42.32;100103.11;108041;1252;60095;-66
2023/05/25 02:13:41;;;;;;;13.10;9.30;;;;;;;24.41;43.14;100102.89;108020;1254;74212;-66
2023/05/25 02:16:08;;;;;;;13.00;9.00;;;;;;;24.37;43.18;100106.05;108193;1254;70708;-67
2023/05/25 02:18:43;;;;;;;14.50;9.60;;;;;;;24.50;42.98;100105.31;108121;1254;72974;-67
2023/05/25 02:21:10;;;;;;;15.10;9.50;;;;;;;24.71;42.52;100103.27;108155;1253;61810;-66
2023/05/25 02:23:36;;;;;;;12.30;9.80;;;;;;;24.86;42.08;100105.76;108203;1253;60416;-66
2023/05/25 02:26:07;;;;;;;17.10;9.20;;;;;;;24.84;41.99;100100.95;108223;1253;74078;-64
2023/05/25 02:28:34;;;;;;;11.80;8.80;;;;;;;24.72;42.09;100107.49;108185;1254;70982;-67
2023/05/25 02:31:00;;;;;;;11.30;8.60;;;;;;;24.65;42.28;100107.81;108170;1254;60453;-66
2023/05/25 02:33:27;;;;;;;12.90;9.30;;;;;;;24.89;41.88;100111.17;108059;1254;61979;-66
2023/05/25 02:35:58;;;;;;;11.80;8.50;;;;;;;25.04;41.34;100109.46;108159;1253;60427;-67
2023/05/25 02:38:25;;;;;;;13.00;9.20;;;;;;;25.12;41.33;100106.98;108268;1253;73683;-67
2023/05/25 02:40:52;;;;;;;16.50;10.10;;;;;;;24.76;41.83;100108.33;108186;1254;70915;-65
2023/05/25 02:43:19;;;;;;;13.80;10.30;;;;;;;24.78;42.03;100111.45;108153;1253;73012;-68
2023/05/25 02:45:46;;;;;;;15.00;9.60;;;;;;;24.57;42.48;100115.02;108250;1254;61879;-67
2023/05/25 02:48:13;;;;;;;12.70;9.80;;;;;;;24.58;42.45;100111.77;108067;1253;60311;-67
2023/05/25 02:50:41;;;;;;;20.20;9.90;;;;;;;24.68;42.26;100117.24;108272;1253;73845;-67
2023/05/25 02:53:11;;;;;;;24.40;10.40;;;;;;;24.63;42.52;100115.59;108089;1254;69841;-67
2023/05/25 02:55:39;;;;;;;20.80;10.50;;;;;;;24.73;42.27;100115.84;108038;1254;72923;-66
2023/05/25 02:58:06;;;;;;;15.00;9.10;;;;;;;24.89;42.16;100116.43;108075;1253;61679;-66
2023/05/25 03:00:46;;;;;;;13.70;9.00;;;;;;;25.00;42.04;100118.11;108085;1254;60931;-67
2023/05/25 03:03:13;;;;;;;13.70;10.10;;;;;;;25.04;41.94;100115.14;108116;1257;73699;-65
2023/05/25 03:05:40;;;;;;;10.50;7.60;;;;;;;25.21;41.66;100114.02;108123;1253;70345;-68
2023/05/25 03:08:07;;;;;;;14.40;9.90;;;;;;;25.03;41.94;100112.80;108000;1254;73328;-66
2023/05/25 03:10:34;;;;;;;13.10;9.30;;;;;;;25.36;41.58;100105.73;108108;1253;61722;-67
2023/05/25 03:13:01;;;;;;;14.40;8.40;;;;;;;25.56;41.25;100104.95;108079;1254;60310;-66
2023/05/25 03:15:29;;;;;;;12.30;9.00;;;;;;;25.50;41.44;100101.88;108133;1254;74662;-69
2023/05/25 03:18:00;;;;;;;13.40;9.50;;;;;;;25.54;41.61;100099.98;108036;1253;70297;-66
2023/05/25 03:20:28;;;;;;;13.10;9.30;;;;;;;25.78;41.38;100099.92;108066;1255;72105;-69
2023/05/25 03:22:55;;;;;;;11.50;9.30;;;;;;;26.24;40.67;100100.61;108034;1254;62036;-67
2023/05/25 03:25:23;;;;;;;12.40;8.80;;;;;;;26.39;40.58;100101.77;108086;1259;60362;-68
2023/05/25 03:27:52;;;;;;;12.50;9.30;;;;;;;26.39;40.78;100107.58;108227;1253;73901;-67
2023/05/25 03:30:20;;;;;;;15.30;8.20;;;;;;;26.17;41.21;100105.26;108104;1254;70136;-69
2023/05/25 03:32:47;;;;;;;9.60;8.10;;;;;;;26.45;40.98;100100.60;108213;1253;72690;-67
2023/05/25 03:35:14;;;;;;;10.50;7.50;;;;;;;26.71;40.76;100110.52;108169;1253;60883;-67
2023/05/25 03:37:41;;;;;;;9.80;6.70;;;;;;;26.92;40.54;100111.58;108043;1254;60217;-67
2023/05/25 03:40:11;;;;;;;11.80;7.50;;;;;;;27.21;40.20;100109.52;108137;1254;74277;-66
2023/05/25 03:42:39;;;;;;;11.90;7.50;;;;;;;27.55;39.89;100107.32;108089;1254;70316;-67
2023/05/25 03:45:08;;;;;;;11.80;6.80;;;;;;;27.74;39.49;100106.68;108101;1253;71439;-65
2023/05/25 03:47:35;;;;;;;9.10;6.30;;;;;;;27.93;39.25;100107.52;108124;1253;61250;-67
2023/05/25 03:50:04;;;;;;;7.40;5.90;;;;;;;28.32;38.68;100105.55;108083;1253;60364;-67
2023/05/25 03:52:32;;;;;;;7.80;6.00;;;;;;;28.74;37.94;100106.98;108186;1253;74483;-67
2023/05/25 03:55:00;;;;;;;8.80;5.30;;;;;;;29.07;37.34;100108.02;108214;1253;68877;-67
2023/05/25 03:57:27;;;;;;;8.40;5.50;;;;;;;29.06;37.51;100106.33;108176;1254;71393;-66
2023/05/25 03:59:54;;;;;;;8.70;5.70;;;;;;;29.45;36.96;100100.41;108170;1253;61904;-69
2023/05/25 04:02:21;;;;;;;10.40;5.60;;;;;;;29.81;36.63;100099.27;108259;1254;60325;-69
2023/05/25 04:04:50;;;;;;;9.90;5.20;;;;;;;30.01;36.34;100101.34;108183;1253;73898;-67
2023/05/25 04:07:18;;;;;;;7.40;4.70;;;;;;;30.36;35.32;100102.80;108190;1253;70124;-67
2023/05/25 04:09:45;;;;;;;13.60;5.10;;;;;;;30.67;35.08;100107.80;108179;1254;72528;-66
2023/05/25 04:12:12;;;;;;;10.60;4.90;;;;;;;31.19;34.25;100108.60;108215;1253;60467;-67
2023/05/25 04:14:38;;;;;;;7.60;4.60;;;;;;;31.72;33.40;100111.19;108048;1253;60284;-69
2023/05/25 04:17:05;;;;;;;9.00;4.60;;;;;;;32.12;32.64;100114.83;108053;1253;74323;-68
2023/05/25 04:19:32;;;;;;;7.40;5.10;;;;;;;32.30;32.33;100111.55;108170;1253;70274;-68
2023/05/25 04:21:59;;;;;;;9.30;5.20;;;;;;;32.00;32.33;100111.79;108219;1253;74025;-67
2023/05/25 04:24:26;;;;;;;9.50;4.70;;;;;;;31.88;32.41;100116.20;108131;1253;60344;-68
2023/05/25 04:26:55;;;;;;;9.30;4.70;;;;;;;32.15;31.79;100117.20;108164;1253;60309;-67
2023/05/25 04:29:23;;;;;;;9.90;4.70;;;;;;;32.31;31.70;100119.25;108259;1256;74130;-68
2023/05/25 04:32:08;;;;;;;6.80;4.40;;;;;;;32.36;31.07;100118.48;108199;1253;70254;-69
2023/05/25 04:34:47;;;;;;;6.40;4.00;;;;;;;32.74;30.46;100121.89;108234;1253;73079;-69
2023/05/25 04:37:20;;;;;;;12.60;4.50;;;;;;;33.08;30.40;100118.86;108260;1253;60374;-68
2023/05/25 04:39:51;;;;;;;8.50;4.00;;;;;;;33.29;30.16;100119.41;108075;1254;62000;-68
2023/05/25 04:42:18;;;;;;;7.60;4.30;;;;;;;33.65;29.58;100111.81;108086;1254;73663;-68
2023/05/25 04:44:44;;;;;;;7.50;3.70;;;;;;;34.15;29.10;100113.84;108097;1253;70541;-68
2023/05/25 04:47:12;;;;;;;6.00;3.40;;;;;;;34.24;28.73;100110.73;108059;1253;65178;-67
2023/05/25 04:49:39;;;;;;;6.80;4.00;;;;;;;34.44;28.48;100112.92;108158;1254;60401;-68
2023/05/25 04:52:07;;;;;;;7.50;3.70;;;;;;;34.80;28.07;100113.50;108124;1254;59165;-68
2023/05/25 04:54:35;;;;;;;6.60;3.50;;;;;;;34.85;27.83;100107.81;108183;1254;65197;-68
2023/05/25 04:57:02;;;;;;;7.10;3.70;;;;;;;35.18;27.05;100105.45;108031;1254;61518;-68
2023/05/25 04:59:30;;;;;;;6.40;3.20;;;;;;;35.24;26.93;100106.19;108012;1254;64065;-68
2023/05/25 05:01:57;;;;;;;10.10;3.10;;;;;;;35.28;26.99;100104.35;108062;1254;60447;-69
2023/05/25 05:04:24;;;;;;;8.30;2.80;;;;;;;35.65;26.32;100103.73;108170;1253;60847;-69
2023/05/25 05:06:50;;;;;;;3.40;2.70;;;;;;;35.50;25.92;100102.92;108134;1254;65349;-67
2023/05/25 05:09:19;;;;;;;8.70;3.00;;;;;;;35.33;26.08;100103.28;108170;1253;60447;-68
2023/05/25 05:11:46;;;;;;;18.10;3.00;;;;;;;35.53;25.91;100105.34;108221;1254;63889;-67
2023/05/25 05:14:14;;;;;;;4.70;2.20;;;;;;;36.03;25.76;100102.66;108064;1254;60345;-68
2023/05/25 05:16:42;;;;;;;5.00;2.40;;;;;;;36.30;24.59;100104.02;108010;1256;60400;-69
2023/05/25 05:19:09;;;;;;;12.90;2.90;;;;;;;36.42;24.34;100104.34;108022;1259;63733;-67
2023/05/25 05:21:36;;;;;;;6.30;2.40;;;;;;;36.46;24.43;100102.15;108089;1254;60426;-67
2023/05/25 05:24:05;;;;;;;4.40;2.10;;;;;;;36.55;23.99;100103.15;108151;1253;64242;-67
2023/05/25 05:26:32;;;;;;;8.60;2.90;;;;;;;36.88;23.61;100106.62;108083;1254;59029;-67
2023/05/25 05:29:16;;;;;;;5.20;2.10;;;;;;;37.12;23.63;100107.27;108193;1254;60393;-68
2023/05/25 05:31:45;;;;;;;8.00;2.40;;;;;;;37.22;23.55;100108.35;108253;1253;65256;-67
2023/05/25 05:34:13;;;;;;;4.10;2.20;;;;;;;37.37;23.15;100108.72;108075;1253;61371;-66
2023/05/25 05:36:39;;;;;;;5.60;2.00;;;;;;;37.64;22.82;100110.88;108063;1254;63907;-67
2023/05/25 05:39:23;;;;;;;5.90;2.10;;;;;;;37.90;22.21;100109.70;108151;1253;60319;-68
2023/05/25 05:41:50;;;;;;;3.90;2.00;;;;;;;38.24;21.93;100114.21;108082;1259;60360;-68
2023/05/25 05:44:22;;;;;;;5.20;2.20;;;;;;;38.45;21.46;100110.48;108135;1255;64010;-68
2023/05/25 05:46:58;;;;;;;3.50;2.00;;;;;;;38.68;21.37;100111.50;108012;1253;61882;-69
2023/05/25 05:49:29;;;;;;;5.10;2.40;;;;;;;39.02;21.19;100113.42;108137;1253;63754;-69
2023/05/25 05:51:56;;;;;;;5.50;2.10;;;;;;;39.18;20.73;100115.07;108228;1253;60406;-67
2023/05/25 05:54:23;;;;;;;4.50;2.20;;;;;;;38.91;20.92;100116.29;108158;1252;60343;-68
2023/05/25 05:56:50;;;;;;;5.00;2.40;;;;;;;38.74;21.06;100120.16;108174;1253;60431;-68
2023/05/25 05:59:18;;;;;;;4.40;2.00;;;;;;;39.08;20.75;100116.52;108049;1254;61572;-69
2023/05/25 06:01:44;;;;;;;5.50;2.30;;;;;;;39.36;20.66;100118.39;107991;1254;62563;-68
2023/05/25 06:04:13;;;;;;;5.20;2.30;;;;;;;39.13;20.67;100120.93;108183;1253;60350;-68
2023/05/25 06:06:42;;;;;;;7.40;2.00;;;;;;;38.82;20.72;100117.52;108112;1254;59436;-70
2023/05/25 06:09:10;;;;;;;7.00;2.60;;;;;;;38.74;20.78;100118.75;108038;1253;64967;-68
2023/05/25 06:11:39;;;;;;;5.30;2.50;;;;;;;38.69;20.73;100118.23;108154;1253;61932;-69
2023/05/25 06:14:06;;;;;;;5.50;2.50;;;;;;;38.75;20.69;100114.61;108158;1254;64151;-68
2023/05/25 06:16:35;;;;;;;6.70;2.60;;;;;;;38.91;20.62;100115.71;108180;1253;59612;-68
2023/05/25 06:19:02;;;;;;;8.70;2.40;;;;;;;39.04;20.44;100119.64;108111;1252;60549;-69
2023/05/25 06:21:28;;;;;;;4.20;2.40;;;;;;;39.29;19.92;100118.48;108108;1253;65246;-67
2023/05/25 06:23:57;;;;;;;7.90;2.70;;;;;;;39.24;19.86;100120.25;108025;1254;61593;-68
2023/05/25 06:26:24;;;;;;;8.70;2.70;;;;;;;39.24;20.21;100124.84;108043;1254;63967;-69
2023/05/25 06:28:50;;;;;;;6.40;2.90;;;;;;;39.38;20.41;100119.05;108056;1253;60374;-69
2023/05/25 06:31:17;;;;;;;7.10;3.00;;;;;;;39.71;20.18;100115.80;108158;1253;60354;-68
2023/05/25 06:33:44;;;;;;;5.50;2.70;;;;;;;40.01;20.13;100118.30;108079;1256;74472;-69
2023/05/25 06:36:12;;;;;;;7.50;2.80;;;;;;;40.30;20.04;100118.77;108046;1254;60575;-67
2023/05/25 06:38:40;;;;;;;4.50;2.90;;;;;;;40.53;19.70;100114.79;107912;1253;64078;-68
2023/05/25 06:41:08;;;;;;;5.30;3.10;;;;;;;40.80;19.40;100115.81;108253;1252;60373;-68
2023/05/25 06:43:35;;;;;;;6.00;3.40;;;;;;;40.80;19.44;100116.81;108202;1253;60284;-69
2023/05/25 06:46:21;;;;;;;5.40;3.80;;;;;;;41.12;19.28;100121.23;108204;1254;65048;-69
2023/05/25 06:48:47;;;;;;;7.60;3.40;;;;;;;41.35;19.03;100121.05;108150;1253;61545;-69
2023/05/25 06:51:14;;;;;;;7.70;4.00;;;;;;;41.29;19.04;100120.38;108203;1254;64093;-67
2023/05/25 06:53:42;;;;;;;8.40;4.30;;;;;;;41.73;18.87;100116.06;108147;1252;60206;-67
2023/05/25 06:56:10;;;;;;;7.00;3.90;;;;;;;41.94;18.71;100114.01;108194;1254;60194;-71
2023/05/25 06:58:37;;;;;;;8.20;4.30;;;;;;;42.04;18.31;100117.28;108153;1254;65247;-70
2023/05/25 07:01:04;;;;;;;10.00;5.00;;;;;;;42.26;18.08;100117.72;108151;1254;61610;-70
2023/05/25 07:03:33;;;;;;;9.40;4.60;;;;;;;42.67;17.74;100117.02;108157;1253;62564;-69
2023/05/25 07:06:00;;;;;;;8.20;4.30;;;;;;;42.89;17.74;100112.98;108196;1253;60164;-70
2023/05/25 07:08:28;;;;;;;8.40;4.50;;;;;;;43.02;17.77;100113.58;108197;1256;60370;-70
2023/05/25 07:10:56;;;;;;;10.60;4.40;;;;;;;43.18;17.65;100112.36;108203;1253;65047;-70
2023/05/25 07:13:23;;;;;;;8.30;4.30;;;;;;;43.03;17.59;100115.19;108216;1254;61602;-70
2023/05/25 07:15:51;;;;;;;9.90;5.00;;;;;;;43.09;17.13;100111.89;108188;1253;65096;-68
2023/05/25 07:18:18;;;;;;;11.80;5.00;;;;;;;43.24;17.01;100110.28;108197;1254;60371;-70
2023/05/25 07:20:45;;;;;;;9.00;4.20;;;;;;;43.23;17.04;100114.14;108230;1254;60345;-69
2023/05/25 07:23:12;;;;;;;9.90;4.70;;;;;;;42.91;17.70;100110.60;108183;1254;65337;-69
2023/05/25 07:25:41;;;;;;;10.00;4.90;;;;;;;42.98;17.59;100113.34;108206;1256;60447;-69
2023/05/25 07:28:08;;;;;;;12.70;5.00;;;;;;;43.02;17.18;100113.41;108174;1256;63810;-69
2023/05/25 07:30:35;;;;;;;7.80;4.50;;;;;;;42.93;16.99;100113.11;108145;1254;60325;-70
2023/05/25 07:33:01;;;;;;;13.30;4.80;;;;;;;43.05;17.00;100112.15;108103;1252;59569;-69
2023/05/25 07:35:28;;;;;;;10.60;5.10;;;;;;;42.96;17.05;100109.73;108219;1254;64951;-68
2023/05/25 07:37:58;;;;;;;7.70;4.50;;;;;;;42.94;17.36;100111.67;108163;1253;61641;-69
2023/05/25 07:40:25;;;;;;;13.50;4.80;;;;;;;43.17;17.12;100114.02;108148;1254;64042;-68
2023/05/25 07:42:52;;;;;;;9.70;4.60;;;;;;;42.91;17.00;100111.83;108145;1254;60271;-69
2023/05/25 07:45:19;;;;;;;10.80;4.60;;;;;;;42.57;17.23;100108.63;108207;1254;60346;-70
2023/05/25 07:47:46;;;;;;;10.30;4.90;;;;;;;42.31;17.37;100106.86;108179;1254;65183;-69
2023/05/25 07:50:13;;;;;;;15.20;4.60;;;;;;;42.45;17.20;100104.17;108162;1254;61431;-68
2023/05/25 07:52:41;;;;;;;10.40;4.40;;;;;;;42.52;17.27;100106.33;108172;1252;64000;-69
2023/05/25 07:55:12;;;;;;;10.10;4.60;;;;;;;42.65;17.08;100105.00;108188;1254;60431;-70
2023/05/25 07:57:39;;;;;;;10.50;4.60;;;;;;;43.08;17.02;100103.63;108144;1253;60695;-68
2023/05/25 08:00:07;;;;;;;8.40;4.30;;;;;;;43.35;17.10;100103.31;108138;1254;65212;-70
2023/05/25 08:02:40;;;;;;;8.50;4.30;;;;;;;43.79;16.54;100101.09;108186;1254;61653;-69
2023/05/25 08:05:08;;;;;;;6.60;3.70;;;;;;;44.06;15.46;100099.54;108195;1253;64067;-71
2023/05/25 08:07:36;;;;;;;9.20;3.90;;;;;;;44.10;15.28;100101.59;108182;1254;60339;-70
2023/05/25 08:10:04;;;;;;;7.10;4.60;;;;;;;43.76;15.83;100105.42;108177;1254;60898;-70
2023/05/25 08:12:35;;;;;;;7.60;4.70;;;;;;;43.55;15.90;100102.23;108109;1253;65076;-70
2023/05/25 08:15:15;;;;;;;12.00;4.80;;;;;;;43.47;16.20;100096.64;108188;1254;61585;-69
2023/05/25 08:17:42;;;;;;;8.10;4.30;;;;;;;43.04;16.14;100092.69;108182;1254;63706;-69
2023/05/25 08:20:12;;;;;;;6.30;4.10;;;;;;;42.89;16.04;100090.38;108253;1254;59030;-68
2023/05/25 08:22:40;;;;;;;8.10;4.50;;;;;;;43.25;15.95;100093.53;108209;1253;60396;-68
2023/05/25 08:25:06;;;;;;;10.70;4.70;;;;;;;43.67;15.52;100094.01;108180;1253;59075;-69
2023/05/25 08:27:33;;;;;;;8.10;4.10;;;;;;;43.41;15.89;100095.45;108207;1254;61727;-68
2023/05/25 08:30:04;;;;;;;6.90;4.20;;;;;;;43.25;15.94;100093.87;108193;1253;63888;-70
2023/05/25 08:32:31;;;;;;;7.90;4.70;;;;;;;43.25;15.79;100095.98;108174;1254;59550;-70
2023/05/25 08:34:58;;;;;;;7.90;4.10;;;;;;;42.83;15.89;100093.99;108186;1254;59580;-68
2023/05/25 08:37:25;;;;;;;9.00;4.20;;;;;;;42.04;16.32;100094.92;108206;1254;59665;-68
2023/05/25 08:39:51;;;;;;;6.80;4.20;;;;;;;41.44;16.74;100099.61;108178;1256;61966;-68
2023/05/25 08:42:18;;;;;;;15.20;4.90;;;;;;;41.11;17.34;100105.00;108041;1253;64044;-68
2023/05/25 08:44:45;;;;;;;10.90;4.90;;;;;;;40.89;17.85;100104.44;108068;1254;60294;-68
2023/05/25 08:47:14;;;;;;;13.50;5.20;;;;;;;40.61;18.10;100101.54;107845;1252;60335;-69
2023/05/25 08:49:40;;;;;;;12.30;4.50;;;;;;;39.89;18.64;100101.15;108219;1256;64952;-72
2023/05/25 08:52:09;;;;;;;13.20;4.70;;;;;;;39.37;19.07;100101.41;108078;1254;61624;-68
2023/05/25 08:54:37;;;;;;;9.70;4.10;;;;;;;38.89;19.25;100102.88;108193;1256;64070;-69
2023/05/25 08:57:12;;;;;;;11.40;4.30;;;;;;;38.16;19.78;100105.11;108165;1254;60328;-71
2023/05/25 08:59:43;;;;;;;7.10;4.40;;;;;;;37.47;20.16;100103.67;108203;1254;60470;-67
2023/05/25 09:02:20;;;;;;;6.40;4.10;;;;;;;36.91;20.59;100099.66;108217;1255;63873;-69
2023/05/25 09:04:47;;;;;;;9.10;4.30;;;;;;;36.51;20.37;100096.98;108192;1254;61735;-68
2023/05/25 09:07:14;;;;;;;12.10;4.40;;;;;;;36.35;20.71;100099.63;108168;1254;63861;-69
2023/05/25 09:09:41;;;;;;;9.80;4.40;;;;;;;36.03;20.84;100101.82;108011;1253;60112;-69
2023/05/25 09:12:08;;;;;;;7.10;4.40;;;;;;;35.75;21.13;100107.69;108038;1253;60533;-67
2023/05/25 09:14:44;;;;;;;9.50;4.80;;;;;;;35.40;20.67;100110.80;108223;1253;65269;-69
2023/05/25 09:17:13;;;;;;;10.90;4.30;;;;;;;35.11;20.50;100110.45;108220;1254;60358;-70
2023/05/25 09:19:40;;;;;;;11.90;5.50;;;;;;;35.01;21.08;100108.76;108197;1256;62442;-69
2023/05/25 09:22:10;;;;;;;13.60;4.00;;;;;;;35.08;20.99;100108.66;107953;1254;155011;-69
2023/05/25 09:25:25;;;;;;;9.20;4.40;;;;;;;32.80;22.80;100119.10;104986;1290;601448;-69
2023/05/25 09:27:52;;;;;;;15.00;5.10;;;;;;;33.96;21.71;100112.31;107400;1264;59254;-70
2023/05/25 09:30:20;;;;;;;15.00;5.00;;;;;;;34.25;21.96;100104.88;107554;1260;61179;-68
2023/05/25 09:32:47;;;;;;;12.30;5.20;;;;;;;34.61;22.42;100102.29;107563;1261;70999;-69
2023/05/25 09:35:15;;;;;;;13.80;5.10;;;;;;;34.69;22.54;100100.05;107589;1260;61552;-69
2023/05/25 09:37:42;;;;;;;12.70;4.90;;;;;;;34.60;22.77;100099.77;107559;1263;63789;-69
2023/05/25 09:40:10;;;;;;;10.70;4.20;;;;;;;34.57;22.66;100099.44;107557;1259;215600;-69
2023/05/25 09:42:37;;;;;;;9.50;4.60;;;;;;;34.52;22.46;100098.31;107710;1263;59029;-69
2023/05/25 09:45:06;;;;;;;9.70;4.50;;;;;;;34.43;22.84;100092.98;107739;1258;64363;-69
2023/05/25 09:47:35;;;;;;;7.30;4.70;;;;;;;34.50;23.29;100092.37;107714;1258;61358;-67
2023/05/25 09:50:03;;;;;;;13.50;4.30;;;;;;;34.56;24.35;100091.45;107742;1258;63920;-69
2023/05/25 09:52:31;;;;;;;21.30;5.10;;;;;;;34.51;24.79;100090.73;107716;1258;59714;-68
2023/05/25 09:54:59;;;;;;;7.60;4.70;;;;;;;34.63;23.72;100084.73;107625;1258;59176;-68
2023/05/25 09:57:27;;;;;;;9.50;4.70;;;;;;;34.76;22.92;100077.00;107513;1258;64145;-68
2023/05/25 09:59:54;;;;;;;7.20;4.40;;;;;;;34.93;22.64;100070.58;107719;1258;60357;-68
2023/05/25 10:02:22;;;;;;;15.00;4.60;;;;;;;35.11;22.59;100066.80;107461;1260;64157;-68
2023/05/25 10:04:49;;;;;;;14.60;4.50;;;;;;;35.40;22.53;100063.56;107591;1260;59641;-70
2023/05/25 10:07:17;;;;;;;9.70;5.50;;;;;;;35.70;22.27;100066.89;107602;1260;59612;-69
2023/05/25 10:09:44;;;;;;;11.80;5.00;;;;;;;35.61;22.27;100064.27;108190;1253;64116;-69
2023/05/25 10:12:14;;;;;;;10.30;5.30;;;;;;;35.63;22.41;100066.36;108257;1252;60112;-69
2023/05/25 10:14:41;;;;;;;11.10;5.00;;;;;;;35.52;22.28;100074.64;108140;1251;63694;-68
2023/05/25 10:17:09;;;;;;;9.70;5.30;;;;;;;35.06;20.83;100077.09;108173;1254;59514;-68
2023/05/25 10:19:41;;;;;;;6.10;4.20;;;;;;;34.79;20.88;100074.77;108117;1251;59644;-69
2023/05/25 10:22:12;;;;;;;9.80;4.10;;;;;;;34.82;20.94;100078.55;108255;1251;64263;-68
2023/05/25 10:24:48;;;;;;;12.30;4.70;;;;;;;34.77;21.50;100087.98;108130;1253;61388;-66
2023/05/25 10:27:22;;;;;;;6.80;4.50;;;;;;;34.92;22.27;100096.00;108145;1254;66543;-69
2023/05/25 10:29:55;;;;;;;10.90;4.40;;;;;;;34.65;23.54;100101.39;107999;1254;59647;-68
2023/05/25 10:32:22;;;;;;;9.20;4.40;;;;;;;34.53;24.09;100103.82;108035;1253;59365;-69
2023/05/25 10:34:50;;;;;;;12.20;5.10;;;;;;;34.51;24.43;100108.65;108070;1258;64161;-69
2023/05/25 10:37:17;;;;;;;13.60;5.10;;;;;;;34.29;24.64;100111.47;108048;1254;63305;-69
2023/05/25 10:39:44;;;;;;;19.00;4.80;;;;;;;33.99;24.46;100108.91;108073;1254;63808;-69
2023/05/25 10:42:12;;;;;;;17.40;5.10;;;;;;;34.10;24.58;100106.06;107913;1254;59637;-69
2023/05/25 10:44:42;;;;;;;13.00;5.50;;;;;;;34.00;24.92;100101.34;108034;1254;59390;-67
2023/05/25 10:47:10;;;;;;;15.90;5.40;;;;;;;33.86;25.23;100101.09;107905;1254;62923;-68
2023/05/25 10:49:57;;;;;;;16.70;5.50;;;;;;;33.88;25.27;100101.05;108009;1254;61358;-69
2023/05/25 10:52:29;;;;;;;15.70;5.30;;;;;;;33.89;25.43;100100.33;108039;1254;62522;-69
2023/05/25 10:55:00;;;;;;;15.00;5.10;;;;;;;33.94;25.53;100091.63;108043;1255;59557;-67
2023/05/25 10:57:27;;;;;;;;;;;;;;;33.87;25.86;100088.23;108062;1254;59363;-67
2023/05/25 11:00:05;;;;;;;25.00;7.10;;;;;;;33.68;26.22;100084.95;108016;1254;73535;-69
2023/05/25 11:02:53;;;;;;;16.60;5.80;;;;;;;34.01;26.02;100080.21;108040;1254;61456;-68
2023/05/25 11:05:46;;;;;;;14.60;5.90;;;;;;;34.14;25.72;100078.73;108037;1254;63753;-70
2023/05/25 11:08:16;;;;;;;18.10;5.50;;;;;;;34.08;25.49;100079.23;107899;1254;59844;-68
2023/05/25 11:10:46;;;;;;;20.90;5.70;;;;;;;34.15;25.37;100079.36;107949;1254;59118;-68
2023/05/25 11:13:36;;;;;;;16.60;5.40;;;;;;;34.32;25.13;100077.31;108017;1259;62887;-69
2023/05/25 11:16:16;;;;;;;15.80;5.40;;;;;;;34.41;24.78;100073.67;108006;1254;63367;-69
2023/05/25 11:18:56;;;;;;;16.30;5.40;;;;;;;34.76;24.68;100068.62;108009;1258;63870;-67
2023/05/25 11:21:26;;;;;;;16.10;5.30;;;;;;;34.80;25.05;100068.48;108033;1257;59533;-69